Time;durP1;ratioP1;P1;durP2;ratioP2;P2;SDS_P1;SDS_P2;PMS_P1;PMS_P2;Temp;Humidity;BMP_temperature;BMP_pressure;BME280_temperature;BME280_humidity;BME280_pressure;Samples;Min_cycle;Max_cycle;Signal;HPM_P1;HPM_P2
2024/04/16 00:00:22;;;;;;;6.50;4.60;;;24.90;58.10;;;;;;6720720;25;79491;-59
2024/04/16 00:03:22;;;;;;;6.03;4.57;;;24.90;58.00;;;;;;6714643;25;79312;-61
2024/04/16 00:06:23;;;;;;;4.95;3.90;;;24.90;57.80;;;;;;6736741;25;81093;-61
2024/04/16 00:09:23;;;;;;;5.32;4.03;;;25.00;57.90;;;;;;6738454;25;79513;-61
2024/04/16 00:12:24;;;;;;;6.43;4.50;;;25.00;57.80;;;;;;6758354;25;80830;-61
2024/04/16 00:15:59;;;;;;;4.93;3.97;;;25.00;57.70;;;;;;6712962;25;79172;-61
2024/04/16 00:19:01;;;;;;;4.30;3.72;;;25.00;57.50;;;;;;6753352;25;80238;-61
2024/04/16 00:22:01;;;;;;;5.55;3.90;;;25.00;57.60;;;;;;6757731;25;79704;-61
2024/04/16 00:25:02;;;;;;;5.00;3.88;;;25.00;57.50;;;;;;6729646;25;79325;-61
2024/04/16 00:28:03;;;;;;;5.20;3.60;;;25.00;57.40;;;;;;6689749;25;81834;-62
2024/04/16 00:31:04;;;;;;;6.63;4.07;;;25.00;57.30;;;;;;6713073;25;79574;-61
2024/04/16 00:34:06;;;;;;;5.22;3.70;;;25.00;57.40;;;;;;6713290;25;79339;-62
2024/04/16 00:37:07;;;;;;;6.13;4.03;;;25.00;57.40;;;;;;6713269;25;80110;-58
2024/04/16 00:40:08;;;;;;;4.95;3.78;;;25.00;57.30;;;;;;6737980;25;80042;-57
2024/04/16 00:43:08;;;;;;;4.68;3.60;;;25.00;57.30;;;;;;6732680;25;78723;-57
2024/04/16 00:46:09;;;;;;;5.18;3.40;;;25.00;57.30;;;;;;6710929;25;79941;-56
2024/04/16 00:49:09;;;;;;;4.57;3.65;;;25.00;57.20;;;;;;6706720;25;78805;-58
2024/04/16 00:52:11;;;;;;;5.35;3.63;;;25.00;57.40;;;;;;6712881;25;80302;-56
2024/04/16 00:55:12;;;;;;;4.45;3.45;;;24.90;57.30;;;;;;6737902;25;78839;-60
2024/04/16 00:58:12;;;;;;;3.13;2.80;;;25.00;57.20;;;;;;6713820;25;79934;-60
2024/04/16 01:01:13;;;;;;;4.30;3.05;;;24.90;57.10;;;;;;6673797;26;78972;-60
2024/04/16 01:04:14;;;;;;;3.60;3.00;;;24.90;57.00;;;;;;6730491;25;78767;-59
2024/04/16 01:07:14;;;;;;;4.25;3.33;;;24.90;57.00;;;;;;6712046;25;81865;-60
2024/04/16 01:10:15;;;;;;;4.20;3.20;;;24.90;57.00;;;;;;6750966;25;79291;-62
2024/04/16 01:13:15;;;;;;;3.95;3.00;;;24.90;57.10;;;;;;6732714;25;81719;-61
2024/04/16 01:16:16;;;;;;;4.20;2.83;;;24.90;56.80;;;;;;6755447;25;80991;-61
2024/04/16 01:19:16;;;;;;;5.65;2.65;;;24.90;56.80;;;;;;6753505;25;80955;-61
2024/04/16 01:22:17;;;;;;;7.10;2.70;;;24.90;56.90;;;;;;6750899;25;79477;-61
2024/04/16 01:25:17;;;;;;;5.70;3.05;;;24.90;56.90;;;;;;6732907;25;79066;-61
2024/04/16 01:28:18;;;;;;;3.83;2.40;;;24.90;56.60;;;;;;6735088;25;78960;-62
2024/04/16 01:31:18;;;;;;;4.57;2.70;;;24.90;56.80;;;;;;6712707;25;78957;-61
2024/04/16 01:34:19;;;;;;;4.22;2.38;;;24.90;56.50;;;;;;6711833;25;78990;-55
2024/04/16 01:37:19;;;;;;;7.47;2.47;;;24.90;56.40;;;;;;6703589;25;84382;-55
2024/04/16 01:40:20;;;;;;;2.83;2.20;;;24.90;56.40;;;;;;6708215;25;79089;-55
2024/04/16 01:43:20;;;;;;;7.57;2.67;;;24.90;56.40;;;;;;6711346;25;80059;-52
2024/04/16 01:46:21;;;;;;;4.20;2.63;;;25.00;56.20;;;;;;6714847;25;78741;-54
2024/04/16 01:49:21;;;;;;;4.40;2.22;;;25.00;56.10;;;;;;6754677;25;80302;-55
2024/04/16 01:52:22;;;;;;;3.03;2.00;;;25.00;56.10;;;;;;6741918;25;79049;-53
2024/04/16 01:55:23;;;;;;;4.97;1.88;;;25.00;56.20;;;;;;6735028;25;79099;-55
2024/04/16 01:58:23;;;;;;;4.95;2.22;;;25.00;56.30;;;;;;6714305;25;79835;-54
2024/04/16 02:01:24;;;;;;;4.45;1.75;;;25.00;56.20;;;;;;6714690;25;78791;-54
2024/04/16 02:04:25;;;;;;;3.40;2.08;;;25.00;56.10;;;;;;6731336;25;78722;-53
2024/04/16 02:07:26;;;;;;;3.35;2.13;;;25.00;56.10;;;;;;6758649;25;80300;-53
2024/04/16 02:10:26;;;;;;;2.50;1.80;;;25.00;56.10;;;;;;6732832;25;78962;-60
2024/04/16 02:13:28;;;;;;;1.88;1.60;;;25.00;56.20;;;;;;6709726;25;79593;-61
2024/04/16 02:16:28;;;;;;;3.80;1.98;;;25.00;56.20;;;;;;6751119;25;81618;-61
2024/04/16 02:19:29;;;;;;;3.05;1.92;;;25.00;56.30;;;;;;6757183;25;80868;-60
2024/04/16 02:22:29;;;;;;;5.95;2.03;;;25.00;56.40;;;;;;6757757;25;79230;-60
2024/04/16 02:25:30;;;;;;;4.10;1.80;;;25.00;56.30;;;;;;6725621;25;79189;-60
2024/04/16 02:28:31;;;;;;;2.97;1.70;;;25.00;56.10;;;;;;6759732;25;81969;-56
2024/04/16 02:31:31;;;;;;;5.18;1.83;;;25.00;56.00;;;;;;6736992;25;78926;-57
2024/04/16 02:34:32;;;;;;;2.55;1.77;;;24.90;56.10;;;;;;6743246;25;79244;-56
2024/04/16 02:37:32;;;;;;;3.70;1.75;;;24.90;56.00;;;;;;6755419;25;79239;-57
2024/04/16 02:40:33;;;;;;;2.80;1.95;;;24.90;55.90;;;;;;6718315;25;81101;-57
2024/04/16 02:43:33;;;;;;;4.60;1.65;;;24.90;55.90;;;;;;6716848;25;84202;-60
2024/04/16 02:46:34;;;;;;;3.50;1.55;;;24.90;56.00;;;;;;6733588;25;79879;-61
2024/04/16 02:49:34;;;;;;;3.35;1.70;;;24.90;55.90;;;;;;6741555;25;78712;-62
2024/04/16 02:52:36;;;;;;;2.97;1.10;;;24.90;55.90;;;;;;6720916;25;79397;-60
2024/04/16 02:55:36;;;;;;;2.05;1.48;;;24.90;55.80;;;;;;6743867;25;79741;-61
2024/04/16 02:58:37;;;;;;;4.25;1.38;;;24.90;55.70;;;;;;6756954;25;80775;-61
2024/04/16 03:01:37;;;;;;;2.85;1.67;;;24.90;55.40;;;;;;6731159;25;79208;-61
2024/04/16 03:04:38;;;;;;;1.88;1.50;;;24.90;55.60;;;;;;6731011;25;78817;-61
2024/04/16 03:07:39;;;;;;;2.22;1.40;;;24.90;55.50;;;;;;6728958;25;78974;-60
2024/04/16 03:10:39;;;;;;;3.50;1.30;;;24.90;55.40;;;;;;6728766;25;79373;-62
2024/04/16 03:13:40;;;;;;;2.35;1.33;;;24.90;55.30;;;;;;6750791;25;82948;-62
2024/04/16 03:16:40;;;;;;;7.18;1.30;;;24.90;55.30;;;;;;6753097;25;79437;-61
2024/04/16 03:19:41;;;;;;;2.20;1.45;;;24.90;55.20;;;;;;6739411;25;78784;-64
2024/04/16 03:22:41;;;;;;;4.88;1.40;;;24.90;55.10;;;;;;6738689;25;82434;-65
2024/04/16 03:25:42;;;;;;;3.30;1.20;;;24.90;55.00;;;;;;6742853;25;78943;-62
2024/04/16 03:28:42;;;;;;;1.40;1.00;;;24.90;55.00;;;;;;6750426;25;79802;-62
2024/04/16 03:31:43;;;;;;;1.98;1.40;;;24.80;54.90;;;;;;6764813;25;78823;-61
2024/04/16 03:34:43;;;;;;;1.73;1.20;;;24.90;54.80;;;;;;6736588;25;78854;-63
2024/04/16 03:37:44;;;;;;;1.88;1.02;;;24.80;54.80;;;;;;6727451;25;78744;-63
2024/04/16 03:40:44;;;;;;;1.02;0.93;;;24.80;54.50;;;;;;6738546;25;79346;-59
2024/04/16 03:43:45;;;;;;;1.42;1.00;;;24.80;54.50;;;;;;6727876;25;79110;-58
2024/04/16 03:46:45;;;;;;;1.83;1.33;;;24.80;54.40;;;;;;6737295;25;79158;-58
2024/04/16 03:49:46;;;;;;;1.23;0.98;;;24.80;54.40;;;;;;6705234;25;86259;-58
2024/04/16 03:52:46;;;;;;;2.92;1.08;;;24.80;54.30;;;;;;6712953;25;79052;-59
2024/04/16 03:55:47;;;;;;;1.23;1.02;;;24.80;54.30;;;;;;6714352;25;78981;-57
2024/04/16 04:02:07;;;;;;;1.75;1.17;;;24.80;54.10;;;;;;6725575;25;81801;-58
2024/04/16 04:05:07;;;;;;;4.40;1.40;;;24.80;54.30;;;;;;6718966;25;78768;-59
2024/04/16 04:08:08;;;;;;;4.32;1.60;;;24.80;54.50;;;;;;6738950;25;79827;-58
2024/04/16 04:11:08;;;;;;;3.28;1.13;;;24.80;54.50;;;;;;6717789;25;80291;-58
2024/04/16 04:14:09;;;;;;;4.60;1.30;;;24.80;54.80;;;;;;6722705;25;80360;-59
2024/04/16 04:17:09;;;;;;;2.42;1.13;;;24.80;55.00;;;;;;6728839;25;82319;-63
2024/04/16 04:23:16;;;;;;;2.75;1.17;;;24.90;55.00;;;;;;6742404;25;79759;-62
2024/04/16 04:26:16;;;;;;;4.38;0.90;;;24.90;54.60;;;;;;6745911;25;79060;-59
2024/04/16 04:29:17;;;;;;;4.43;1.45;;;24.90;54.60;;;;;;6727418;25;79371;-63
2024/04/16 04:32:18;;;;;;;3.60;1.20;;;24.90;55.00;;;;;;6729780;25;78896;-62
2024/04/16 04:35:18;;;;;;;10.55;1.50;;;24.90;54.40;;;;;;6731303;25;79693;-59
2024/04/16 04:38:19;;;;;;;2.00;1.10;;;24.80;54.10;;;;;;6753180;25;80984;-59
2024/04/16 04:41:19;;;;;;;12.50;2.42;;;24.80;54.10;;;;;;6752930;25;81185;-59
2024/04/16 04:44:20;;;;;;;8.52;1.52;;;24.80;54.10;;;;;;6718870;25;79151;-59
2024/04/16 04:47:20;;;;;;;8.15;1.30;;;24.80;53.90;;;;;;6731883;25;78817;-60
2024/04/16 04:50:21;;;;;;;11.63;1.55;;;24.80;53.80;;;;;;6739032;25;79579;-58
2024/04/16 04:53:21;;;;;;;8.75;1.30;;;24.80;53.70;;;;;;6717968;25;79699;-58
2024/04/16 04:56:22;;;;;;;4.43;1.23;;;24.80;53.70;;;;;;6724041;25;82525;-64
2024/04/16 04:59:22;;;;;;;4.63;1.20;;;24.80;53.70;;;;;;6732219;25;79881;-64
2024/04/16 05:02:23;;;;;;;6.57;1.30;;;24.80;53.60;;;;;;6731982;25;80831;-64
2024/04/16 05:05:23;;;;;;;4.80;1.20;;;24.70;53.50;;;;;;6665652;26;82686;-64
2024/04/16 05:08:28;;;;;;;2.85;1.38;;;24.70;53.50;;;;;;6704569;25;79202;-63
2024/04/16 05:11:28;;;;;;;2.75;1.25;;;24.70;53.50;;;;;;6744719;25;79052;-63
2024/04/16 05:14:29;;;;;;;3.72;1.23;;;24.70;53.50;;;;;;6746599;25;82415;-63
2024/04/16 05:17:30;;;;;;;3.90;1.73;;;24.70;53.50;;;;;;6758189;25;79715;-64
2024/04/16 05:20:30;;;;;;;4.03;1.20;;;24.70;53.40;;;;;;6724534;25;78752;-64
2024/04/16 05:23:31;;;;;;;3.60;1.35;;;24.70;53.40;;;;;;6756558;25;79882;-63
2024/04/16 05:26:32;;;;;;;5.00;0.93;;;24.70;53.30;;;;;;6701228;25;80875;-63
2024/04/16 05:29:32;;;;;;;3.13;1.10;;;24.70;53.20;;;;;;6757849;25;80751;-64
2024/04/16 05:32:33;;;;;;;3.50;1.30;;;24.80;53.20;;;;;;6749107;25;78986;-59
2024/04/16 05:35:33;;;;;;;3.10;1.70;;;24.80;53.10;;;;;;6725233;25;80611;-59
2024/04/16 05:38:34;;;;;;;2.13;1.10;;;24.70;53.10;;;;;;6712707;25;78957;-59
2024/04/16 05:41:34;;;;;;;3.63;1.60;;;24.70;53.70;;;;;;6736893;25;79150;-59
2024/04/16 05:44:35;;;;;;;3.42;1.50;;;24.70;53.00;;;;;;6734921;25;79825;-58
2024/04/16 05:47:35;;;;;;;1.73;1.20;;;24.70;53.00;;;;;;6756078;25;79499;-59
2024/04/16 05:50:36;;;;;;;3.08;1.08;;;24.70;53.00;;;;;;6756490;25;82928;-59
2024/04/16 05:53:36;;;;;;;7.20;1.70;;;24.70;52.90;;;;;;6723960;25;81786;-59
2024/04/16 05:56:37;;;;;;;1.35;1.15;;;24.70;52.90;;;;;;6695778;25;79880;-60
2024/04/16 05:59:37;;;;;;;2.28;1.30;;;24.70;52.90;;;;;;6745099;25;79095;-60
2024/04/16 06:02:38;;;;;;;2.67;1.33;;;24.70;52.80;;;;;;6736355;25;80652;-59
2024/04/16 06:05:38;;;;;;;2.90;1.27;;;24.60;52.60;;;;;;6711731;25;80474;-59
2024/04/16 06:08:39;;;;;;;3.58;1.30;;;24.70;52.60;;;;;;6736928;25;79200;-64
2024/04/16 06:11:39;;;;;;;6.20;1.70;;;24.70;52.60;;;;;;6720488;25;78912;-63
2024/04/16 06:14:40;;;;;;;2.33;1.48;;;24.60;52.40;;;;;;6758245;25;82983;-63
2024/04/16 06:17:40;;;;;;;3.47;1.52;;;24.70;52.40;;;;;;6726458;25;79244;-64
2024/04/16 06:20:41;;;;;;;2.08;1.35;;;24.70;52.30;;;;;;6712338;25;80143;-63
2024/04/16 06:23:42;;;;;;;2.17;1.35;;;24.70;52.20;;;;;;6714305;25;78958;-64
2024/04/16 06:26:42;;;;;;;3.40;1.40;;;24.70;52.10;;;;;;6713392;25;79451;-63
2024/04/16 06:29:43;;;;;;;2.78;1.60;;;24.70;52.10;;;;;;6713577;25;79296;-63
2024/04/16 06:32:43;;;;;;;2.35;1.42;;;24.70;52.00;;;;;;6712728;25;79065;-63
2024/04/16 06:35:44;;;;;;;2.50;1.60;;;24.70;51.90;;;;;;6711668;25;78962;-63
2024/04/16 06:38:44;;;;;;;2.25;1.17;;;24.70;51.80;;;;;;6711163;25;79097;-63
2024/04/16 06:41:45;;;;;;;2.78;1.42;;;24.70;51.80;;;;;;6711835;25;78512;-63
2024/04/16 06:44:45;;;;;;;2.70;1.30;;;24.70;51.60;;;;;;6711296;25;79076;-59
2024/04/16 06:47:46;;;;;;;2.20;1.40;;;24.70;51.70;;;;;;6713000;25;79369;-59
2024/04/16 06:50:47;;;;;;;2.22;1.35;;;24.70;51.50;;;;;;6734620;25;80584;-60
2024/04/16 06:53:47;;;;;;;2.38;1.30;;;24.70;51.50;;;;;;6661861;26;79406;-59
2024/04/16 06:56:48;;;;;;;6.53;1.88;;;24.70;51.50;;;;;;6704561;25;79143;-59
2024/04/16 06:59:48;;;;;;;3.55;1.40;;;24.70;51.40;;;;;;6679545;25;78940;-60
2024/04/16 07:02:49;;;;;;;2.35;1.35;;;24.70;51.30;;;;;;6710200;25;79326;-64
2024/04/16 07:05:49;;;;;;;2.15;1.20;;;24.70;51.20;;;;;;6732484;25;79015;-63
2024/04/16 07:08:50;;;;;;;5.07;1.20;;;24.60;51.20;;;;;;6737710;25;79275;-63
2024/04/16 07:11:51;;;;;;;2.95;1.35;;;24.60;51.00;;;;;;6748613;25;79287;-63
2024/04/16 07:14:52;;;;;;;8.43;1.67;;;24.70;51.10;;;;;;6737972;25;79254;-63
2024/04/16 07:17:52;;;;;;;4.13;1.38;;;24.70;51.00;;;;;;6751534;25;79110;-64
2024/04/16 07:20:53;;;;;;;3.13;1.42;;;24.60;50.90;;;;;;6742861;25;78724;-62
2024/04/16 07:23:54;;;;;;;3.25;1.23;;;24.60;50.80;;;;;;6733485;25;79122;-64
2024/04/16 07:26:54;;;;;;;1.75;1.13;;;24.70;50.70;;;;;;6715011;25;79375;-63
2024/04/16 07:29:55;;;;;;;1.90;1.25;;;24.70;50.60;;;;;;6757578;25;80120;-62
2024/04/16 07:32:55;;;;;;;1.88;1.33;;;24.70;50.50;;;;;;6746776;25;79224;-63
2024/04/16 07:35:56;;;;;;;3.25;1.25;;;24.70;50.60;;;;;;6757890;25;80572;-63
2024/04/16 07:38:56;;;;;;;1.77;1.30;;;24.70;50.50;;;;;;6757499;25;78933;-63
2024/04/16 07:41:57;;;;;;;3.45;1.35;;;24.70;50.50;;;;;;6758132;25;79526;-64
2024/04/16 07:44:57;;;;;;;2.53;1.50;;;24.70;50.40;;;;;;6735273;25;80062;-63
2024/04/16 07:47:58;;;;;;;2.45;1.52;;;24.60;50.30;;;;;;6763178;25;79264;-63
2024/04/16 07:50:58;;;;;;;1.20;1.10;;;24.70;50.30;;;;;;6773711;25;78419;-63
2024/04/16 07:53:59;;;;;;;3.03;1.83;;;24.70;50.30;;;;;;6704279;25;79146;-63
2024/04/16 07:56:59;;;;;;;2.03;1.27;;;24.70;50.30;;;;;;6758919;25;79101;-63
2024/04/16 08:00:00;;;;;;;1.13;0.90;;;24.70;50.20;;;;;;6702904;25;80059;-58
2024/04/16 08:03:00;;;;;;;3.80;1.60;;;24.70;50.10;;;;;;6749460;25;79072;-57
2024/04/16 08:06:01;;;;;;;2.88;1.40;;;24.70;50.10;;;;;;6687886;25;79222;-59
2024/04/16 08:09:02;;;;;;;2.85;1.23;;;24.70;50.70;;;;;;6725213;25;84582;-58
2024/04/16 08:12:02;;;;;;;1.55;1.10;;;24.70;50.00;;;;;;6728492;25;78830;-58
2024/04/16 08:15:04;;;;;;;3.80;1.40;;;24.70;50.00;;;;;;6718695;25;83135;-60
2024/04/16 08:18:04;;;;;;;2.38;1.30;;;24.70;50.50;;;;;;6713518;25;81027;-58
2024/04/16 08:21:05;;;;;;;1.85;1.33;;;24.70;49.80;;;;;;6715007;25;78876;-59
2024/04/16 08:24:05;;;;;;;1.80;1.20;;;24.70;49.80;;;;;;6714243;25;79544;-58
2024/04/16 08:27:06;;;;;;;1.92;1.10;;;24.60;49.70;;;;;;6714986;25;80871;-59
2024/04/16 08:30:07;;;;;;;3.10;1.40;;;24.70;49.70;;;;;;6735861;25;78781;-59
2024/04/16 08:33:08;;;;;;;2.70;1.60;;;24.60;49.50;;;;;;6715636;25;79305;-59
2024/04/16 08:36:09;;;;;;;1.77;1.27;;;24.60;49.60;;;;;;6714552;25;81192;-70
2024/04/16 08:39:09;;;;;;;1.92;1.13;;;24.70;49.50;;;;;;6740194;25;80363;-67
2024/04/16 08:42:10;;;;;;;0.93;0.93;;;24.70;49.50;;;;;;6783322;25;79359;-66
2024/04/16 08:45:10;;;;;;;2.63;1.23;;;24.60;49.30;;;;;;6726350;25;78804;-68
2024/04/16 08:48:11;;;;;;;1.98;1.05;;;24.70;49.30;;;;;;6750720;25;78845;-67
2024/04/16 08:51:11;;;;;;;1.58;1.23;;;24.70;49.20;;;;;;6766207;25;79510;-67
2024/04/16 08:54:12;;;;;;;2.50;1.02;;;24.70;49.20;;;;;;6759591;25;78903;-58
2024/04/16 08:57:12;;;;;;;3.05;1.20;;;24.70;49.10;;;;;;6748991;25;79066;-58
2024/04/16 09:00:13;;;;;;;1.63;1.20;;;24.70;49.00;;;;;;6734070;25;79201;-57
2024/04/16 09:03:13;;;;;;;1.42;1.10;;;24.70;49.00;;;;;;6739223;25;78943;-59
2024/04/16 09:06:14;;;;;;;3.05;1.33;;;24.70;49.00;;;;;;6735771;25;80259;-58
2024/04/16 09:09:14;;;;;;;1.90;1.33;;;24.60;48.90;;;;;;6738002;25;79800;-58
2024/04/16 09:12:15;;;;;;;5.13;1.73;;;24.70;48.90;;;;;;6757138;25;78747;-62
2024/04/16 09:15:16;;;;;;;4.88;1.33;;;24.70;48.80;;;;;;6757837;25;79999;-63
2024/04/16 09:18:16;;;;;;;2.28;1.52;;;24.70;48.70;;;;;;6733093;25;78928;-63
2024/04/16 09:21:17;;;;;;;1.92;1.35;;;24.70;48.60;;;;;;6754465;25;79336;-63
2024/04/16 09:24:18;;;;;;;1.45;0.98;;;24.60;48.50;;;;;;6744768;25;79000;-63
2024/04/16 09:27:19;;;;;;;2.28;1.60;;;24.70;48.60;;;;;;6757464;25;79229;-61
2024/04/16 09:30:19;;;;;;;2.70;1.63;;;24.70;48.50;;;;;;6733829;25;80249;-62
2024/04/16 09:33:20;;;;;;;3.70;1.20;;;24.70;48.50;;;;;;6718217;25;79367;-62
2024/04/16 09:36:20;;;;;;;3.92;1.67;;;24.70;48.40;;;;;;6711906;25;80063;-63
2024/04/16 09:39:21;;;;;;;1.80;1.00;;;24.70;48.30;;;;;;6752873;25;79996;-62
2024/04/16 09:42:22;;;;;;;1.38;0.98;;;24.70;48.20;;;;;;6739601;25;79208;-63
2024/04/16 09:45:22;;;;;;;1.55;1.27;;;24.70;48.10;;;;;;6721947;25;80859;-63
2024/04/16 09:48:24;;;;;;;1.60;1.25;;;24.70;48.10;;;;;;6744713;25;79452;-65
2024/04/16 09:51:24;;;;;;;2.33;1.10;;;24.70;48.10;;;;;;6728091;25;78706;-63
2024/04/16 09:54:25;;;;;;;1.90;1.02;;;24.70;48.20;;;;;;6719802;25;78884;-66
2024/04/16 09:57:25;;;;;;;1.55;1.30;;;24.80;48.10;;;;;;6735528;25;79062;-63
2024/04/16 10:00:26;;;;;;;1.33;1.08;;;24.80;48.00;;;;;;6712977;25;80594;-64
2024/04/16 10:03:26;;;;;;;3.28;1.60;;;24.80;47.90;;;;;;6649996;25;80080;-64
2024/04/16 10:06:27;;;;;;;3.28;1.63;;;24.80;47.80;;;;;;6719561;25;79050;-64
2024/04/16 10:09:28;;;;;;;3.28;1.70;;;24.80;47.90;;;;;;6754087;25;82351;-64
2024/04/16 10:12:29;;;;;;;3.78;1.45;;;24.80;47.90;;;;;;6711389;25;79096;-63
2024/04/16 10:15:29;;;;;;;1.20;1.00;;;24.80;47.90;;;;;;6714701;25;78982;-62
2024/04/16 10:18:30;;;;;;;1.58;1.10;;;24.80;48.00;;;;;;6735972;25;78917;-63
2024/04/16 10:21:31;;;;;;;3.85;1.33;;;24.80;47.90;;;;;;6712111;25;80674;-64
2024/04/16 10:24:31;;;;;;;2.45;1.23;;;24.80;47.90;;;;;;6723398;25;79488;-62
2024/04/16 10:27:31;;;;;;;2.15;1.00;;;24.80;47.90;;;;;;6732553;25;79087;-62
2024/04/16 10:30:32;;;;;;;4.43;1.40;;;24.80;47.90;;;;;;6755691;25;81051;-63
2024/04/16 10:33:33;;;;;;;3.10;1.42;;;24.80;47.90;;;;;;6748167;25;83293;-63
2024/04/16 10:36:35;;;;;;;2.13;1.02;;;24.80;47.80;;;;;;6757506;25;78969;-61
2024/04/16 10:39:35;;;;;;;2.38;1.10;;;24.80;47.80;;;;;;6755738;25;78943;-63
2024/04/16 10:42:36;;;;;;;2.65;1.42;;;24.80;47.90;;;;;;6738986;25;80486;-64
2024/04/16 10:45:37;;;;;;;2.03;1.15;;;24.80;47.90;;;;;;6712102;25;79027;-63
2024/04/16 10:48:37;;;;;;;3.67;1.38;;;24.80;47.90;;;;;;6714493;25;79889;-63
2024/04/16 10:51:38;;;;;;;1.80;1.10;;;24.80;47.70;;;;;;6665165;25;79602;-63
2024/04/16 10:54:38;;;;;;;1.85;1.23;;;24.90;47.60;;;;;;6729366;25;79433;-64
2024/04/16 10:57:41;;;;;;;1.13;1.00;;;24.90;47.60;;;;;;6707298;25;79195;-64
2024/04/16 11:00:41;;;;;;;1.98;1.50;;;24.90;47.40;;;;;;6719338;25;79164;-65
2024/04/16 11:03:42;;;;;;;2.47;2.08;;;24.90;47.40;;;;;;6716537;25;79103;-60
2024/04/16 11:06:42;;;;;;;4.75;1.58;;;24.90;47.40;;;;;;6712013;25;79229;-59
2024/04/16 11:09:43;;;;;;;2.38;1.30;;;24.90;47.50;;;;;;6720969;25;79200;-59
2024/04/16 11:12:43;;;;;;;2.63;1.00;;;24.90;47.40;;;;;;6760187;25;79345;-59
2024/04/16 11:15:44;;;;;;;3.95;1.48;;;24.90;47.30;;;;;;6752725;25;79089;-59
2024/04/16 11:18:44;;;;;;;5.07;1.50;;;24.90;47.20;;;;;;6759642;25;79209;-59
2024/04/16 11:21:45;;;;;;;1.90;1.42;;;25.00;47.00;;;;;;6760217;25;80179;-63
2024/04/16 11:24:45;;;;;;;2.72;1.20;;;25.00;46.90;;;;;;6758715;25;78975;-64
2024/04/16 11:27:46;;;;;;;2.08;1.20;;;25.00;46.90;;;;;;6749206;25;80885;-64
2024/04/16 11:30:47;;;;;;;1.33;0.98;;;24.90;46.80;;;;;;6738536;25;82896;-64
2024/04/16 11:33:47;;;;;;;3.05;1.10;;;25.00;46.80;;;;;;6749728;25;78474;-64
2024/04/16 11:36:47;;;;;;;1.83;1.20;;;25.00;46.70;;;;;;6756949;25;78725;-63
2024/04/16 11:39:48;;;;;;;4.82;1.10;;;25.00;46.80;;;;;;6761125;25;82228;-60
2024/04/16 11:42:49;;;;;;;2.15;1.30;;;25.00;46.90;;;;;;6733626;25;80384;-59
2024/04/16 11:45:49;;;;;;;4.15;1.30;;;24.90;47.10;;;;;;6730444;25;80122;-59
2024/04/16 11:48:49;;;;;;;2.08;1.23;;;24.90;47.00;;;;;;6714317;25;79149;-59
2024/04/16 11:51:50;;;;;;;2.95;1.15;;;24.90;46.70;;;;;;6715180;25;80591;-58
2024/04/16 11:54:51;;;;;;;1.30;1.05;;;24.90;46.80;;;;;;6706217;25;82228;-59
2024/04/16 11:57:51;;;;;;;4.35;1.00;;;24.90;46.80;;;;;;6731107;25;80618;-58
2024/04/16 12:00:52;;;;;;;1.42;0.90;;;24.90;46.70;;;;;;6714828;25;79401;-59
2024/04/16 12:03:52;;;;;;;2.05;1.10;;;24.90;46.70;;;;;;6683339;26;80337;-60
2024/04/16 12:06:53;;;;;;;1.55;1.00;;;24.90;46.70;;;;;;6736836;25;78996;-59
2024/04/16 12:09:53;;;;;;;2.00;1.10;;;24.90;46.60;;;;;;6736934;25;79162;-60
2024/04/16 12:12:54;;;;;;;1.67;0.98;;;24.90;46.60;;;;;;6714803;25;78810;-60
2024/04/16 12:15:54;;;;;;;1.73;1.17;;;24.90;46.50;;;;;;6662886;25;83154;-69
2024/04/16 12:18:55;;;;;;;2.17;1.25;;;24.80;46.50;;;;;;6703661;25;79039;-69
2024/04/16 12:21:56;;;;;;;1.30;1.10;;;24.90;46.50;;;;;;6715768;25;78850;-70
2024/04/16 12:24:56;;;;;;;6.78;1.23;;;24.90;46.60;;;;;;6714427;25;80722;-71
2024/04/16 12:27:57;;;;;;;2.38;0.95;;;24.90;46.60;;;;;;6716055;25;79174;-71
2024/04/16 12:30:58;;;;;;;2.50;1.25;;;24.90;46.60;;;;;;6726785;25;79267;-70
2024/04/16 12:34:01;;;;;;;1.38;1.10;;;24.90;46.60;;;;;;6749793;25;79243;-71
2024/04/16 12:37:02;;;;;;;2.47;0.90;;;24.80;46.60;;;;;;6759345;25;79384;-70
2024/04/16 12:40:02;;;;;;;2.97;1.10;;;24.90;46.60;;;;;;6734536;25;80982;-70
2024/04/16 12:43:03;;;;;;;4.63;0.95;;;24.80;46.50;;;;;;6716286;25;79433;-69
2024/04/16 12:46:03;;;;;;;2.25;0.98;;;24.80;46.50;;;;;;6715401;25;79560;-70
2024/04/16 12:49:04;;;;;;;2.95;1.10;;;24.80;46.50;;;;;;6714302;25;78930;-71
2024/04/16 12:52:05;;;;;;;3.05;1.35;;;24.80;46.50;;;;;;6682199;25;85377;-57
2024/04/16 12:55:05;;;;;;;5.97;1.00;;;24.90;46.60;;;;;;6749214;25;78860;-57
2024/04/16 12:58:06;;;;;;;5.82;1.63;;;24.90;46.70;;;;;;6707315;25;80879;-56
2024/04/16 13:01:06;;;;;;;9.68;1.52;;;24.90;46.90;;;;;;6714641;25;80004;-58
2024/04/16 13:04:07;;;;;;;1.90;1.13;;;24.90;47.30;;;;;;6737866;25;79474;-56
2024/04/16 13:07:07;;;;;;;4.90;1.02;;;24.90;47.40;;;;;;6726108;25;84334;-57
2024/04/16 13:10:08;;;;;;;2.47;1.10;;;24.90;47.80;;;;;;6757698;25;78912;-57
2024/04/16 13:13:08;;;;;;;3.60;1.17;;;24.90;48.30;;;;;;6738754;25;79032;-59
2024/04/16 13:16:09;;;;;;;2.50;1.10;;;24.90;48.90;;;;;;6705954;25;83892;-59
2024/04/16 13:19:09;;;;;;;2.40;1.08;;;25.00;49.00;;;;;;6738856;25;80193;-59
2024/04/16 13:22:11;;;;;;;2.15;1.05;;;25.00;48.90;;;;;;6735369;25;79071;-60
2024/04/16 13:25:11;;;;;;;2.28;1.30;;;25.00;48.90;;;;;;6759679;25;79873;-61
2024/04/16 13:28:12;;;;;;;3.13;1.08;;;25.00;48.80;;;;;;6693702;26;80802;-60
2024/04/16 13:31:12;;;;;;;4.28;1.40;;;25.00;48.70;;;;;;6749963;25;79179;-61
2024/04/16 13:34:13;;;;;;;8.73;2.00;;;25.00;48.80;;;;;;6723495;25;80342;-60
2024/04/16 13:37:13;;;;;;;2.75;1.20;;;25.00;48.70;;;;;;6676049;25;79127;-60
2024/04/16 13:40:14;;;;;;;6.00;1.25;;;25.00;48.80;;;;;;6728446;25;80641;-60
2024/04/16 13:43:14;;;;;;;4.18;1.40;;;25.00;48.70;;;;;;6731342;25;80890;-59
2024/04/16 13:46:15;;;;;;;3.85;1.25;;;25.00;48.70;;;;;;6710187;25;79044;-60
2024/04/16 13:49:15;;;;;;;7.53;1.20;;;25.00;48.40;;;;;;6758120;25;79384;-61
2024/04/16 13:52:16;;;;;;;2.20;1.20;;;25.00;48.20;;;;;;6712929;25;79597;-61
2024/04/16 13:55:16;;;;;;;2.38;1.17;;;25.00;48.30;;;;;;6711175;25;83917;-59
2024/04/16 13:58:18;;;;;;;2.15;1.25;;;25.00;48.20;;;;;;6710877;25;78753;-59
2024/04/16 14:01:19;;;;;;;3.85;1.20;;;25.00;48.40;;;;;;6712116;25;81095;-59
2024/04/16 14:04:19;;;;;;;3.38;1.10;;;25.00;48.50;;;;;;6693467;25;79306;-59
2024/04/16 14:07:20;;;;;;;3.05;1.42;;;25.00;48.30;;;;;;6710579;25;80768;-61
2024/04/16 14:10:21;;;;;;;3.63;0.90;;;25.10;48.30;;;;;;6717074;25;78887;-59
2024/04/16 14:13:21;;;;;;;9.10;1.38;;;25.10;48.60;;;;;;6723709;25;79337;-60
2024/04/16 14:16:22;;;;;;;6.82;1.52;;;25.10;48.70;;;;;;6726578;25;83709;-59
2024/04/16 14:19:22;;;;;;;5.40;1.17;;;25.10;48.70;;;;;;6727268;25;79203;-61
2024/04/16 14:22:26;;;;;;;9.85;1.33;;;25.10;48.50;;;;;;6726787;25;78703;-62
2024/04/16 14:25:27;;;;;;;7.53;1.50;;;25.20;48.90;;;;;;6717226;25;82731;-65
2024/04/16 14:28:30;;;;;;;5.50;1.50;;;25.20;48.90;;;;;;6727274;25;87876;-63
2024/04/16 14:31:31;;;;;;;17.10;1.80;;;25.20;49.20;;;;;;6683220;25;81430;-64
2024/04/16 14:34:31;;;;;;;9.98;1.63;;;25.10;49.80;;;;;;6750877;25;78936;-66
2024/04/16 14:37:32;;;;;;;5.13;1.25;;;25.20;49.20;;;;;;6735071;25;87367;-63
2024/04/16 14:40:32;;;;;;;3.35;1.30;;;25.20;49.30;;;;;;6747739;25;83543;-66
2024/04/16 14:43:33;;;;;;;2.80;1.35;;;25.20;49.00;;;;;;6717020;25;79033;-64
2024/04/16 14:46:33;;;;;;;6.90;1.30;;;25.20;48.90;;;;;;6724815;25;79197;-63
2024/04/16 14:49:34;;;;;;;14.93;2.00;;;25.20;48.90;;;;;;6753413;25;79120;-63
2024/04/16 14:52:34;;;;;;;11.77;1.85;;;25.20;49.00;;;;;;6755097;25;80006;-61
2024/04/16 14:55:38;;;;;;;7.40;1.23;;;25.20;49.10;;;;;;6740798;25;79291;-62
2024/04/16 14:58:38;;;;;;;10.30;1.20;;;25.20;49.20;;;;;;6684294;25;83481;-63
2024/04/16 15:01:39;;;;;;;6.20;1.20;;;25.20;48.90;;;;;;6695438;25;78968;-60
2024/04/16 15:04:39;;;;;;;8.90;1.40;;;25.10;48.80;;;;;;6687972;25;83674;-65
2024/04/16 15:07:40;;;;;;;5.07;1.20;;;25.10;48.90;;;;;;6677670;25;78547;-61
2024/04/16 15:10:41;;;;;;;6.10;1.33;;;25.10;48.60;;;;;;6686360;25;78698;-62
2024/04/16 15:13:41;;;;;;;8.82;1.50;;;25.10;48.80;;;;;;6648169;25;83231;-63
2024/04/16 15:16:42;;;;;;;14.88;2.35;;;25.10;48.80;;;;;;6725483;25;79143;-65
2024/04/16 15:19:42;;;;;;;9.07;1.48;;;25.10;48.70;;;;;;6746692;25;78539;-59
2024/04/16 15:22:43;;;;;;;9.02;1.23;;;25.10;48.60;;;;;;6719123;25;82393;-60
2024/04/16 15:25:43;;;;;;;2.45;0.95;;;25.10;48.70;;;;;;6736222;25;79226;-62
2024/04/16 15:28:44;;;;;;;4.03;1.00;;;25.10;48.80;;;;;;6704146;25;84731;-62
2024/04/16 15:31:44;;;;;;;13.90;1.45;;;25.10;48.30;;;;;;6718654;25;78739;-61
2024/04/16 15:34:45;;;;;;;6.28;1.55;;;25.10;48.90;;;;;;6732340;25;80014;-61
2024/04/16 15:37:46;;;;;;;5.78;1.30;;;24.90;46.60;;;;;;6757441;25;80123;-56
2024/04/16 15:40:46;;;;;;;3.53;1.35;;;24.90;46.70;;;;;;6749588;25;78946;-58
2024/04/16 15:43:47;;;;;;;4.05;1.00;;;24.90;46.80;;;;;;6736442;25;83059;-57